Observation data for Guthrie on 11/10/2019      Previous  Date       Current Mesonet Observations  Soil Data  Daily Summary Page  Observations in Plain Language
KPFS 100600Z 20004KT 11/08 A3008 RMK A01 T01120077  RH  082%=      5-min Rain = 0
KPFS 100605Z 19004KT 11/08 A3008 RMK A01 T01090077  RH  083%=      5-min Rain = 0
KPFS 100610Z 24003KT 11/08 A3007 RMK A01 T01080077  RH  084%=      5-min Rain = 0
KPFS 100615Z 19003KT 11/08 A3008 RMK A01 T01060076  RH  084%=      5-min Rain = 0
KPFS 100620Z 20003KT 10/08 A3007 RMK A01 T01030075  RH  085%=      5-min Rain = 0
KPFS 100625Z 19004KT 10/08 A3007 RMK A01 T01030077  RH  086%=      5-min Rain = 0
KPFS 100630Z 19004KT 10/08 A3007 RMK A01 T01040077  RH  086%=      5-min Rain = 0
KPFS 100635Z 20004KT 10/08 A3007 RMK A01 T01030077  RH  086%=      5-min Rain = 0
KPFS 100640Z 19004KT 10/08 A3007 RMK A01 T01040078  RH  086%=      5-min Rain = 0
KPFS 100645Z 19004KT 10/08 A3007 RMK A01 T01020076  RH  086%=      5-min Rain = 0
KPFS 100650Z 19004KT 10/08 A3007 RMK A01 T01000075  RH  087%=      5-min Rain = 0
KPFS 100655Z 19003KT 10/08 A3007 RMK A01 T00990075  RH  087%=      5-min Rain = 0
KPFS 100700Z 18003KT 10/07 A3007 RMK A01 T00980074  RH  088%=      5-min Rain = 0
KPFS 100705Z 19003KT 10/07 A3007 RMK A01 T00960073  RH  088%=      5-min Rain = 0
KPFS 100710Z 20003KT 10/07 A3007 RMK A01 T00950073  RH  089%=      5-min Rain = 0
KPFS 100715Z 22002KT 10/07 A3007 RMK A01 T00950074  RH  089%=      5-min Rain = 0
KPFS 100720Z 24002KT 10/08 A3006 RMK A01 T00960075  RH  089%=      5-min Rain = 0
KPFS 100725Z 24002KT 09/07 A3006 RMK A01 T00940073  RH  089%=      5-min Rain = 0
KPFS 100730Z 23003KT 09/07 A3006 RMK A01 T00920072  RH  089%=      5-min Rain = 0
KPFS 100735Z 22004KT 09/07 A3006 RMK A01 T00920072  RH  090%=      5-min Rain = 0
KPFS 100740Z 22004KT 09/07 A3006 RMK A01 T00900071  RH  090%=      5-min Rain = 0
KPFS 100745Z 22003KT 09/07 A3006 RMK A01 T00890071  RH  091%=      5-min Rain = 0
KPFS 100750Z 21002KT 09/07 A3006 RMK A01 T00890072  RH  091%=      5-min Rain = 0
KPFS 100755Z 22003KT 09/07 A3006 RMK A01 T00870070  RH  092%=      5-min Rain = 0
KPFS 100800Z 22003KT 09/07 A3006 RMK A01 T00850069  RH  092%=      5-min Rain = 0
KPFS 100805Z 21004KT 08/07 A3006 RMK A01 T00830067  RH  092%=      5-min Rain = 0
KPFS 100810Z 21004KT 08/07 A3006 RMK A01 T00820067  RH  093%=      5-min Rain = 0
KPFS 100815Z 20004KT 08/06 A3005 RMK A01 T00790064  RH  093%=      5-min Rain = 0
KPFS 100820Z 20004KT 08/07 A3005 RMK A01 T00780065  RH  093%=      5-min Rain = 0
KPFS 100825Z 21004KT 08/07 A3005 RMK A01 T00790066  RH  094%=      5-min Rain = 0
KPFS 100830Z 20005KT 08/07 A3005 RMK A01 T00790066  RH  094%=      5-min Rain = 0
KPFS 100835Z 20004KT 08/06 A3005 RMK A01 T00760064  RH  094%=      5-min Rain = 0
KPFS 100840Z 20004KT 08/06 A3004 RMK A01 T00770064  RH  094%=      5-min Rain = 0
KPFS 100845Z 19004KT 08/07 A3004 RMK A01 T00820070  RH  095%=      5-min Rain = 0
KPFS 100850Z 20004KT 08/07 A3004 RMK A01 T00840072  RH  095%=      5-min Rain = 0
KPFS 100855Z 19004KT 09/07 A3004 RMK A01 T00850073  RH  095%=      5-min Rain = 0
KPFS 100900Z 20005KT 08/07 A3004 RMK A01 T00840072  RH  094%=      5-min Rain = 0
KPFS 100905Z 20005KT 09/07 A3004 RMK A01 T00850073  RH  094%=      5-min Rain = 0
KPFS 100910Z 20004KT 08/07 A3004 RMK A01 T00840071  RH  094%=      5-min Rain = 0
KPFS 100915Z 20004KT 08/07 A3004 RMK A01 T00840071  RH  094%=      5-min Rain = 0
KPFS 100920Z 20004KT 08/07 A3004 RMK A01 T00830071  RH  094%=      5-min Rain = 0
KPFS 100925Z 20005KT 08/07 A3004 RMK A01 T00830070  RH  094%=      5-min Rain = 0
KPFS 100930Z 20005KT 08/07 A3004 RMK A01 T00840072  RH  094%=      5-min Rain = 0
KPFS 100935Z 20005KT 08/07 A3004 RMK A01 T00840072  RH  094%=      5-min Rain = 0
KPFS 100940Z 20005KT 08/07 A3004 RMK A01 T00840071  RH  094%=      5-min Rain = 0
KPFS 100945Z 20005KT 08/07 A3004 RMK A01 T00820069  RH  094%=      5-min Rain = 0
KPFS 100950Z 19006KT 08/07 A3004 RMK A01 T00800068  RH  094%=      5-min Rain = 0
KPFS 100955Z 19005KT 08/07 A3004 RMK A01 T00820069  RH  094%=      5-min Rain = 0
KPFS 101000Z 19005KT 08/07 A3004 RMK A01 T00810069  RH  094%=      5-min Rain = 0
KPFS 101005Z 18006KT 08/07 A3003 RMK A01 T00800068  RH  095%=      5-min Rain = 0
KPFS 101010Z 19006KT 08/07 A3003 RMK A01 T00820071  RH  095%=      5-min Rain = 0
KPFS 101015Z 19006KT 09/07 A3003 RMK A01 T00850073  RH  095%=      5-min Rain = 0
KPFS 101020Z 19006KT 09/07 A3003 RMK A01 T00850073  RH  095%=      5-min Rain = 0
KPFS 101025Z 20005KT 09/07 A3003 RMK A01 T00850073  RH  095%=      5-min Rain = 0
KPFS 101030Z 20005KT 08/07 A3003 RMK A01 T00840072  RH  095%=      5-min Rain = 0
KPFS 101035Z 20005KT 08/07 A3003 RMK A01 T00830071  RH  095%=      5-min Rain = 0
KPFS 101040Z 20005KT 08/07 A3003 RMK A01 T00830072  RH  095%=      5-min Rain = 0
KPFS 101045Z 19006KT 08/07 A3003 RMK A01 T00840072  RH  095%=      5-min Rain = 0
KPFS 101050Z 19007KT 09/07 A3003 RMK A01 T00850074  RH  095%=      5-min Rain = 0
KPFS 101055Z 19008KT 09/08 A3002 RMK A01 T00870076  RH  095%=      5-min Rain = 0
KPFS 101100Z 19009KT 09/08 A3002 RMK A01 T00900078  RH  095%=      5-min Rain = 0
KPFS 101105Z 19008KT 09/08 A3002 RMK A01 T00900079  RH  095%=      5-min Rain = 0
KPFS 101110Z 19008KT 09/08 A3002 RMK A01 T00890077  RH  095%=      5-min Rain = 0
KPFS 101115Z 19007KT 09/08 A3002 RMK A01 T00870075  RH  095%=      5-min Rain = 0
KPFS 101120Z 19007KT 09/07 A3002 RMK A01 T00860074  RH  095%=      5-min Rain = 0
KPFS 101125Z 19007KT 09/08 A3002 RMK A01 T00870075  RH  095%=      5-min Rain = 0
KPFS 101130Z 20007KT 09/07 A3002 RMK A01 T00860074  RH  095%=      5-min Rain = 0
KPFS 101135Z 20008KT 09/07 A3002 RMK A01 T00850074  RH  095%=      5-min Rain = 0
KPFS 101140Z 20007KT 08/07 A3002 RMK A01 T00840073  RH  095%=      5-min Rain = 0
KPFS 101145Z 20007KT 08/07 A3002 RMK A01 T00830072  RH  095%=      5-min Rain = 0
KPFS 101150Z 19006KT 08/07 A3002 RMK A01 T00820071  RH  095%=      5-min Rain = 0
KPFS 101155Z 18006KT 08/07 A3002 RMK A01 T00840073  RH  096%=      5-min Rain = 0
KPFS 101200Z 18006KT 08/07 A3002 RMK A01 T00840074  RH  096%=      5-min Rain = 0
KPFS 101205Z 18006KT 08/07 A3002 RMK A01 T00840074  RH  096%=      5-min Rain = 0
KPFS 101210Z 19007KT 08/07 A3002 RMK A01 T00840074  RH  096%=      5-min Rain = 0
KPFS 101215Z 19007KT 08/07 A3002 RMK A01 T00840074  RH  096%=      5-min Rain = 0
KPFS 101220Z 19007KT 08/07 A3002 RMK A01 T00830073  RH  096%=      5-min Rain = 0
KPFS 101225Z 18007KT 08/07 A3002 RMK A01 T00840074  RH  096%=      5-min Rain = 0
KPFS 101230Z 18008KT 08/07 A3002 RMK A01 T00840074  RH  096%=      5-min Rain = 0
KPFS 101235Z 18007KT 08/07 A3002 RMK A01 T00830074  RH  096%=      5-min Rain = 0
KPFS 101240Z 18007KT 08/07 A3002 RMK A01 T00830074  RH  096%=      5-min Rain = 0
KPFS 101245Z 18007KT 08/07 A3002 RMK A01 T00820073  RH  096%=      5-min Rain = 0
KPFS 101250Z 19006KT 08/07 A3002 RMK A01 T00810072  RH  097%=      5-min Rain = 0
KPFS 101255Z 19006KT 08/07 A3002 RMK A01 T00810072  RH  097%=      5-min Rain = 0
KPFS 101300Z 19006KT 08/07 A3002 RMK A01 T00820073  RH  097%=      5-min Rain = 0
KPFS 101305Z 19007KT 08/08 A3001 RMK A01 T00830075  RH  097%=      5-min Rain = 0
KPFS 101310Z 19007KT 09/08 A3001 RMK A01 T00850077  RH  097%=      5-min Rain = 0
KPFS 101315Z 19007KT 09/08 A3002 RMK A01 T00860078  RH  097%=      5-min Rain = 0
KPFS 101320Z 20007KT 09/08 A3002 RMK A01 T00870078  RH  097%=      5-min Rain = 0
KPFS 101325Z 19007KT 09/08 A3002 RMK A01 T00870078  RH  097%=      5-min Rain = 0
KPFS 101330Z 19007KT 09/08 A3002 RMK A01 T00880079  RH  097%=      5-min Rain = 0
KPFS 101335Z 19007KT 09/08 A3002 RMK A01 T00890080  RH  097%=      5-min Rain = 0
KPFS 101340Z 19008KT 09/08 A3002 RMK A01 T00890080  RH  097%=      5-min Rain = 0
KPFS 101345Z 19007KT 09/08 A3002 RMK A01 T00900081  RH  096%=      5-min Rain = 0
KPFS 101350Z 19007KT 09/08 A3002 RMK A01 T00910082  RH  096%=      5-min Rain = 0
KPFS 101355Z 19007KT 09/08 A3002 RMK A01 T00930083  RH  096%=      5-min Rain = 0
KPFS 101400Z 20008KT 10/09 A3002 RMK A01 T00950085  RH  096%=      5-min Rain = 0
KPFS 101405Z 20007KT 10/09 A3002 RMK A01 T00970087  RH  096%=      5-min Rain = 0
KPFS 101410Z 20007KT 10/09 A3002 RMK A01 T01000089  RH  096%=      5-min Rain = 0
KPFS 101415Z 20007KT 10/09 A3002 RMK A01 T01020091  RH  095%=      5-min Rain = 0
KPFS 101420Z 21007KT 11/09 A3002 RMK A01 T01060094  RH  095%=      5-min Rain = 0
KPFS 101425Z 21006KT 11/10 A3002 RMK A01 T01110098  RH  095%=      5-min Rain = 0
KPFS 101430Z 22007KT 12/10 A3002 RMK A01 T01150102  RH  095%=      5-min Rain = 0
KPFS 101435Z 22008KT 12/11 A3002 RMK A01 T01200105  RH  094%=      5-min Rain = 0
KPFS 101440Z 22008KT 13/11 A3002 RMK A01 T01250107  RH  092%=      5-min Rain = 0
KPFS 101445Z 22010KT 13/11 A3001 RMK A01 T01280107  RH  090%=      5-min Rain = 0
KPFS 101450Z 22010KT 13/11 A3001 RMK A01 T01300106  RH  088%=      5-min Rain = 0
KPFS 101455Z 22010KT 13/11 A3002 RMK A01 T01320105  RH  087%=      5-min Rain = 0
KPFS 101500Z 21008KT 14/11 A3001 RMK A01 T01350107  RH  086%=      5-min Rain = 0
KPFS 101505Z 21009KT 14/11 A3001 RMK A01 T01380107  RH  085%=      5-min Rain = 0
KPFS 101510Z 21009KT 14/11 A3001 RMK A01 T01410108  RH  083%=      5-min Rain = 0
KPFS 101515Z 22010KT 14/11 A3001 RMK A01 T01420107  RH  082%=      5-min Rain = 0
KPFS 101520Z 22010G15KT 14/11 A3001 RMK A01 T01440107  RH  081%=      5-min Rain = 0
KPFS 101525Z 22011KT 15/11 A3001 RMK A01 T01470107  RH  080%=      5-min Rain = 0
KPFS 101530Z 21011KT 15/11 A3001 RMK A01 T01480106  RH  079%=      5-min Rain = 0
KPFS 101535Z 21012KT 15/11 A3001 RMK A01 T01510107  RH  078%=      5-min Rain = 0
KPFS 101540Z 23010G15KT 16/11 A3001 RMK A01 T01550108  RH  076%=      5-min Rain = 0
KPFS 101545Z 22012KT 16/11 A3001 RMK A01 T01570107  RH  075%=      5-min Rain = 0
KPFS 101550Z 22011KT 16/11 A3001 RMK A01 T01590107  RH  074%=      5-min Rain = 0
KPFS 101555Z 22010G16KT 17/11 A30 RMK A01 T01650110  RH  072%=      5-min Rain = 0
KPFS 101600Z 22012G18KT 17/11 A30 RMK A01 T01680109  RH  071%=      5-min Rain = 0
KPFS 101605Z 22013G18KT 17/11 A30 RMK A01 T01710109  RH  069%=      5-min Rain = 0
KPFS 101610Z 22013KT 17/11 A30 RMK A01 T01720110  RH  069%=      5-min Rain = 0
KPFS 101615Z 22015KT 18/11 A2999 RMK A01 T01750109  RH  068%=      5-min Rain = 0
KPFS 101620Z 21016G21KT 17/11 A2999 RMK A01 T01740109  RH  068%=      5-min Rain = 0
KPFS 101625Z 22013G18KT 18/11 A2999 RMK A01 T01800111  RH  066%=      5-min Rain = 0
KPFS 101630Z 22013G19KT 18/11 A2999 RMK A01 T01830111  RH  065%=      5-min Rain = 0
KPFS 101635Z 23011KT 19/11 A2999 RMK A01 T01860112  RH  064%=      5-min Rain = 0
KPFS 101640Z 22013G18KT 19/11 A2999 RMK A01 T01870111  RH  064%=      5-min Rain = 0
KPFS 101645Z 22014KT 19/11 A2999 RMK A01 T01860111  RH  064%=      5-min Rain = 0
KPFS 101650Z 22012KT 19/11 A2998 RMK A01 T01900112  RH  063%=      5-min Rain = 0
KPFS 101655Z 21013KT 19/11 A2998 RMK A01 T01900111  RH  063%=      5-min Rain = 0
KPFS 101700Z 21013G18KT 19/11 A2998 RMK A01 T01890112  RH  063%=      5-min Rain = 0
KPFS 101705Z 21015G20KT 19/11 A2997 RMK A01 T01910112  RH  062%=      5-min Rain = 0
KPFS 101710Z 22015KT 19/11 A2997 RMK A01 T01920113  RH  062%=      5-min Rain = 0
KPFS 101715Z 22014KT 19/11 A2997 RMK A01 T01940114  RH  062%=      5-min Rain = 0
KPFS 101720Z 21014G19KT 20/11 A2996 RMK A01 T01990114  RH  060%=      5-min Rain = 0
KPFS 101725Z 22013G18KT 21/12 A2996 RMK A01 T02050116  RH  059%=      5-min Rain = 0
KPFS 101730Z 21013G18KT 20/12 A2996 RMK A01 T02030115  RH  059%=      5-min Rain = 0
KPFS 101735Z 21012KT 21/12 A2996 RMK A01 T02080117  RH  058%=      5-min Rain = 0
KPFS 101740Z 21013KT 21/12 A2995 RMK A01 T02090117  RH  058%=      5-min Rain = 0
KPFS 101745Z 21014G21KT 21/12 A2995 RMK A01 T02090117  RH  058%=      5-min Rain = 0
KPFS 101750Z 22014KT 21/12 A2995 RMK A01 T02140118  RH  056%=      5-min Rain = 0
KPFS 101755Z 21015KT 22/12 A2994 RMK A01 T02160118  RH  056%=      5-min Rain = 0
KPFS 101800Z 22016KT 22/12 A2994 RMK A01 T02180118  RH  055%=      5-min Rain = 0
KPFS 101805Z 21014KT 22/12 A2994 RMK A01 T02180118  RH  055%=      5-min Rain = 0
KPFS 101810Z 22013G18KT 22/12 A2994 RMK A01 T02210120  RH  054%=      5-min Rain = 0
KPFS 101815Z 21015G20KT 22/12 A2993 RMK A01 T02210118  RH  054%=      5-min Rain = 0
KPFS 101820Z 20014KT 22/12 A2993 RMK A01 T02240118  RH  053%=      5-min Rain = 0
KPFS 101825Z 21012G17KT 22/12 A2993 RMK A01 T02230118  RH  053%=      5-min Rain = 0
KPFS 101830Z 22012G17KT 23/12 A2992 RMK A01 T02290119  RH  052%=      5-min Rain = 0
KPFS 101835Z 21011KT 23/12 A2992 RMK A01 T02300118  RH  051%=      5-min Rain = 0
KPFS 101840Z 21011KT 23/12 A2992 RMK A01 T02260118  RH  052%=      5-min Rain = 0
KPFS 101845Z 23011KT 23/12 A2991 RMK A01 T02250117  RH  052%=      5-min Rain = 0
KPFS 101850Z 22010G15KT 23/12 A2991 RMK A01 T02300119  RH  052%=      5-min Rain = 0
KPFS 101855Z 23011KT 23/12 A2991 RMK A01 T02340118  RH  050%=      5-min Rain = 0
KPFS 101900Z 23012KT 24/12 A2991 RMK A01 T02370119  RH  049%=      5-min Rain = 0
KPFS 101905Z 21013KT 24/12 A299 RMK A01 T02360118  RH  049%=      5-min Rain = 0
KPFS 101910Z 22011G18KT 24/12 A299 RMK A01 T02390119  RH  049%=      5-min Rain = 0
KPFS 101915Z 22010G15KT 24/12 A2989 RMK A01 T02400119  RH  048%=      5-min Rain = 0
KPFS 101920Z 22011G16KT 24/12 A2989 RMK A01 T02380119  RH  049%=      5-min Rain = 0
KPFS 101925Z 21012G18KT 24/12 A2988 RMK A01 T02380120  RH  049%=      5-min Rain = 0
KPFS 101930Z 21011KT 24/12 A2988 RMK A01 T02440120  RH  048%=      5-min Rain = 0
KPFS 101935Z 21011KT 24/12 A2988 RMK A01 T02440119  RH  047%=      5-min Rain = 0
KPFS 101940Z 22013G18KT 25/12 A2988 RMK A01 T02450119  RH  047%=      5-min Rain = 0
KPFS 101945Z 20013G18KT 25/12 A2988 RMK A01 T02460119  RH  047%=      5-min Rain = 0
KPFS 101950Z 20013G18KT 24/12 A2987 RMK A01 T02420120  RH  048%=      5-min Rain = 0
KPFS 101955Z 22012G17KT 24/12 A2987 RMK A01 T02420120  RH  048%=      5-min Rain = 0
KPFS 102000Z 20012G18KT 25/12 A2987 RMK A01 T02480121  RH  047%=      5-min Rain = 0
KPFS 102005Z 20014G20KT 25/12 A2987 RMK A01 T02470119  RH  047%=      5-min Rain = 0
KPFS 102010Z 20013G18KT 25/12 A2986 RMK A01 T02450118  RH  047%=      5-min Rain = 0
KPFS 102015Z 20013KT 25/12 A2986 RMK A01 T02500121  RH  046%=      5-min Rain = 0
KPFS 102020Z 20012KT 25/12 A2986 RMK A01 T02520120  RH  045%=      5-min Rain = 0
KPFS 102025Z 20012KT 25/12 A2985 RMK A01 T02490120  RH  046%=      5-min Rain = 0
KPFS 102030Z 20012G17KT 25/12 A2985 RMK A01 T02520119  RH  045%=      5-min Rain = 0
KPFS 102035Z 21013G18KT 26/12 A2985 RMK A01 T02560120  RH  044%=      5-min Rain = 0
KPFS 102040Z 21015KT 25/12 A2985 RMK A01 T02530116  RH  044%=      5-min Rain = 0
KPFS 102045Z 22012KT 26/12 A2985 RMK A01 T02550118  RH  044%=      5-min Rain = 0
KPFS 102050Z 20010KT 26/12 A2985 RMK A01 T02570120  RH  044%=      5-min Rain = 0
KPFS 102055Z 21010G17KT 26/12 A2985 RMK A01 T02630121  RH  043%=      5-min Rain = 0
KPFS 102100Z 22011G16KT 26/12 A2985 RMK A01 T02610119  RH  043%=      5-min Rain = 0
KPFS 102105Z 20014KT 26/12 A2985 RMK A01 T02600118  RH  043%=      5-min Rain = 0
KPFS 102110Z 20012G19KT 26/12 A2984 RMK A01 T02580120  RH  044%=      5-min Rain = 0
KPFS 102115Z 20014KT 26/12 A2984 RMK A01 T02600119  RH  043%=      5-min Rain = 0
KPFS 102120Z 22014G19KT 26/12 A2984 RMK A01 T02590119  RH  043%=      5-min Rain = 0
KPFS 102125Z 21012G17KT 26/12 A2984 RMK A01 T02620119  RH  043%=      5-min Rain = 0
KPFS 102130Z 22013KT 26/12 A2984 RMK A01 T02570118  RH  043%=      5-min Rain = 0
KPFS 102135Z 21012KT 26/12 A2983 RMK A01 T02560119  RH  044%=      5-min Rain = 0
KPFS 102140Z 20012G17KT 26/12 A2983 RMK A01 T02580118  RH  043%=      5-min Rain = 0
KPFS 102145Z 20013KT 26/12 A2983 RMK A01 T02600118  RH  043%=      5-min Rain = 0
KPFS 102150Z 20013G18KT 26/12 A2983 RMK A01 T02600117  RH  042%=      5-min Rain = 0
KPFS 102155Z 22014KT 26/12 A2983 RMK A01 T02610119  RH  043%=      5-min Rain = 0
KPFS 102200Z 22015KT 26/12 A2983 RMK A01 T02580118  RH  043%=      5-min Rain = 0
KPFS 102205Z 21012G17KT 26/12 A2983 RMK A01 T02580120  RH  044%=      5-min Rain = 0
KPFS 102210Z 21012KT 26/12 A2983 RMK A01 T02600121  RH  044%=      5-min Rain = 0
KPFS 102215Z 21010G15KT 26/12 A2983 RMK A01 T02610122  RH  044%=      5-min Rain = 0
KPFS 102220Z 21012G18KT 26/12 A2983 RMK A01 T02550120  RH  045%=      5-min Rain = 0
KPFS 102225Z 21013KT 25/12 A2983 RMK A01 T02500121  RH  046%=      5-min Rain = 0
KPFS 102230Z 21012G17KT 25/12 A2983 RMK A01 T02500122  RH  047%=      5-min Rain = 0
KPFS 102235Z 21011KT 25/12 A2982 RMK A01 T02490123  RH  047%=      5-min Rain = 0
KPFS 102240Z 21010KT 25/12 A2982 RMK A01 T02460123  RH  048%=      5-min Rain = 0
KPFS 102245Z 21011KT 24/12 A2982 RMK A01 T02440124  RH  049%=      5-min Rain = 0
KPFS 102250Z 20011KT 24/13 A2982 RMK A01 T02410125  RH  050%=      5-min Rain = 0
KPFS 102255Z 19009KT 24/13 A2982 RMK A01 T02390125  RH  051%=      5-min Rain = 0
KPFS 102300Z 19009KT 24/13 A2982 RMK A01 T02360125  RH  052%=      5-min Rain = 0
KPFS 102305Z 19009KT 24/13 A2982 RMK A01 T02350125  RH  052%=      5-min Rain = 0
KPFS 102310Z 19008KT 23/13 A2982 RMK A01 T02330126  RH  053%=      5-min Rain = 0
KPFS 102315Z 19009KT 23/13 A2982 RMK A01 T02320126  RH  053%=      5-min Rain = 0
KPFS 102320Z 19009KT 23/13 A2982 RMK A01 T02290126  RH  054%=      5-min Rain = 0
KPFS 102325Z 18009KT 23/13 A2982 RMK A01 T02270126  RH  055%=      5-min Rain = 0
KPFS 102330Z 19009KT 23/13 A2982 RMK A01 T02250126  RH  056%=      5-min Rain = 0
KPFS 102335Z 18009KT 22/13 A2982 RMK A01 T02220126  RH  057%=      5-min Rain = 0
KPFS 102340Z 17009KT 22/13 A2982 RMK A01 T02210127  RH  057%=      5-min Rain = 0
KPFS 102345Z 17010KT 22/13 A2981 RMK A01 T02180126  RH  058%=      5-min Rain = 0
KPFS 102350Z 16011KT 22/13 A2981 RMK A01 T02150126  RH  059%=      5-min Rain = 0
KPFS 102355Z 16011KT 21/13 A2981 RMK A01 T02110127  RH  061%=      5-min Rain = 0
KPFS 110000Z 17011KT 21/13 A2981 RMK A01 T02110128  RH  062%=      5-min Rain = 0
KPFS 110005Z 17011KT 21/13 A2981 RMK A01 T02100129  RH  062%=      5-min Rain = 0
KPFS 110010Z 17011KT 21/13 A2981 RMK A01 T02110129  RH  062%=      5-min Rain = 0
KPFS 110015Z 17010KT 21/13 A2981 RMK A01 T02100129  RH  062%=      5-min Rain = 0
KPFS 110020Z 17010KT 21/13 A2981 RMK A01 T02090129  RH  063%=      5-min Rain = 0
KPFS 110025Z 17010KT 21/13 A2981 RMK A01 T02070130  RH  064%=      5-min Rain = 0
KPFS 110030Z 18011KT 21/13 A2981 RMK A01 T02100130  RH  063%=      5-min Rain = 0
KPFS 110035Z 18011KT 21/13 A2981 RMK A01 T02110130  RH  062%=      5-min Rain = 0
KPFS 110040Z 18011G16KT 21/13 A2981 RMK A01 T02110130  RH  062%=      5-min Rain = 0
KPFS 110045Z 18011KT 21/13 A2981 RMK A01 T02110130  RH  062%=      5-min Rain = 0
KPFS 110050Z 18011KT 21/13 A2981 RMK A01 T02110130  RH  062%=      5-min Rain = 0
KPFS 110055Z 17010KT 21/13 A2981 RMK A01 T02090130  RH  063%=      5-min Rain = 0
KPFS 110100Z 17011KT 21/13 A2981 RMK A01 T02070130  RH  064%=      5-min Rain = 0
KPFS 110105Z 17012KT 21/13 A2981 RMK A01 T02080130  RH  064%=      5-min Rain = 0
KPFS 110110Z 17012KT 21/13 A2981 RMK A01 T02070130  RH  064%=      5-min Rain = 0
KPFS 110115Z 17012KT 21/13 A2981 RMK A01 T02060130  RH  064%=      5-min Rain = 0
KPFS 110120Z 17012KT 21/13 A2981 RMK A01 T02050130  RH  065%=      5-min Rain = 0
KPFS 110125Z 17012KT 20/13 A2981 RMK A01 T02040130  RH  065%=      5-min Rain = 0
KPFS 110130Z 17011KT 20/13 A2981 RMK A01 T02020130  RH  066%=      5-min Rain = 0
KPFS 110135Z 16011KT 20/13 A2981 RMK A01 T02000130  RH  067%=      5-min Rain = 0
KPFS 110140Z 16011KT 20/13 A2981 RMK A01 T01980130  RH  067%=      5-min Rain = 0
KPFS 110145Z 16011KT 20/13 A2981 RMK A01 T01960130  RH  068%=      5-min Rain = 0
KPFS 110150Z 16012KT 20/13 A2981 RMK A01 T01950130  RH  069%=      5-min Rain = 0
KPFS 110155Z 16012KT 19/13 A2981 RMK A01 T01940130  RH  069%=      5-min Rain = 0
KPFS 110200Z 17012KT 19/13 A2981 RMK A01 T01920130  RH  070%=      5-min Rain = 0
KPFS 110205Z 16012KT 19/13 A2981 RMK A01 T01910130  RH  071%=      5-min Rain = 0
KPFS 110210Z 16012KT 19/13 A2981 RMK A01 T01890130  RH  071%=      5-min Rain = 0
KPFS 110215Z 16011KT 19/13 A2981 RMK A01 T01870130  RH  072%=      5-min Rain = 0
KPFS 110220Z 16012KT 19/13 A2981 RMK A01 T01860130  RH  073%=      5-min Rain = 0
KPFS 110225Z 16012KT 19/13 A2981 RMK A01 T01860130  RH  073%=      5-min Rain = 0
KPFS 110230Z 16012KT 19/13 A2981 RMK A01 T01850130  RH  073%=      5-min Rain = 0
KPFS 110235Z 16012KT 18/13 A2981 RMK A01 T01840130  RH  074%=      5-min Rain = 0
KPFS 110240Z 16011KT 18/13 A2981 RMK A01 T01820130  RH  074%=      5-min Rain = 0
KPFS 110245Z 17012KT 18/13 A2981 RMK A01 T01820130  RH  075%=      5-min Rain = 0
KPFS 110250Z 16012KT 18/13 A2981 RMK A01 T01820130  RH  074%=      5-min Rain = 0
KPFS 110255Z 17012KT 18/13 A2981 RMK A01 T01810130  RH  075%=      5-min Rain = 0
KPFS 110300Z 17013KT 18/13 A2981 RMK A01 T01820130  RH  075%=      5-min Rain = 0
KPFS 110305Z 17012KT 18/13 A2981 RMK A01 T01810130  RH  075%=      5-min Rain = 0
KPFS 110310Z 17011KT 18/13 A2981 RMK A01 T01800130  RH  076%=      5-min Rain = 0
KPFS 110315Z 16011KT 18/13 A2981 RMK A01 T01790130  RH  076%=      5-min Rain = 0
KPFS 110320Z 17011KT 18/13 A2981 RMK A01 T01780130  RH  076%=      5-min Rain = 0
KPFS 110325Z 17010KT 18/13 A2981 RMK A01 T01760129  RH  077%=      5-min Rain = 0
KPFS 110330Z 17009KT 17/13 A2981 RMK A01 T01730129  RH  078%=      5-min Rain = 0
KPFS 110335Z 18006KT 17/13 A2981 RMK A01 T01720128  RH  079%=      5-min Rain = 0
KPFS 110340Z 21003KT 17/13 A2981 RMK A01 T01670126  RH  079%=      5-min Rain = 0
KPFS 110345Z 21003KT 16/12 A2981 RMK A01 T01610123  RH  082%=      5-min Rain = 0
KPFS 110350Z 20003KT 16/13 A2981 RMK A01 T01590125  RH  083%=      5-min Rain = 0
KPFS 110355Z 20004KT 16/13 A2981 RMK A01 T01590126  RH  084%=      5-min Rain = 0
KPFS 110400Z 20006KT 16/13 A2981 RMK A01 T01630128  RH  083%=      5-min Rain = 0
KPFS 110405Z 20008KT 17/13 A2981 RMK A01 T01700129  RH  080%=      5-min Rain = 0
KPFS 110410Z 20008KT 17/13 A2981 RMK A01 T01730129  RH  079%=      5-min Rain = 0
KPFS 110415Z 20009KT 18/13 A2981 RMK A01 T01750129  RH  078%=      5-min Rain = 0
KPFS 110420Z 20009KT 18/13 A298 RMK A01 T01760130  RH  077%=      5-min Rain = 0
KPFS 110425Z 20009KT 18/13 A298 RMK A01 T01770129  RH  076%=      5-min Rain = 0
KPFS 110430Z 20009KT 18/13 A298 RMK A01 T01780129  RH  076%=      5-min Rain = 0
KPFS 110435Z 20009KT 18/13 A298 RMK A01 T01770129  RH  076%=      5-min Rain = 0
KPFS 110440Z 20009KT 18/13 A298 RMK A01 T01770129  RH  076%=      5-min Rain = 0
KPFS 110445Z 20008KT 18/13 A298 RMK A01 T01760128  RH  077%=      5-min Rain = 0
KPFS 110450Z 20008KT 18/13 A2981 RMK A01 T01760129  RH  077%=      5-min Rain = 0
KPFS 110455Z 20007KT 18/13 A2981 RMK A01 T01750128  RH  077%=      5-min Rain = 0
KPFS 110500Z 20006KT 17/13 A2981 RMK A01 T01730128  RH  078%=      5-min Rain = 0
KPFS 110505Z 20006KT 18/13 A2981 RMK A01 T01750129  RH  077%=      5-min Rain = 0
KPFS 110510Z 19007KT 18/13 A2981 RMK A01 T01770129  RH  077%=      5-min Rain = 0
KPFS 110515Z 19009KT 18/13 A298 RMK A01 T01780130  RH  076%=      5-min Rain = 0
KPFS 110520Z 19009KT 18/13 A298 RMK A01 T01780130  RH  076%=      5-min Rain = 0
KPFS 110525Z 19009KT 18/13 A298 RMK A01 T01790130  RH  076%=      5-min Rain = 0
KPFS 110530Z 19009KT 18/13 A298 RMK A01 T01780129  RH  076%=      5-min Rain = 0
KPFS 110535Z 19009KT 18/13 A298 RMK A01 T01770129  RH  077%=      5-min Rain = 0
KPFS 110540Z 20009KT 18/13 A298 RMK A01 T01780130  RH  076%=      5-min Rain = 0
KPFS 110545Z 20010KT 18/13 A298 RMK A01 T01770130  RH  077%=      5-min Rain = 0
KPFS 110550Z 20010KT 18/13 A2981 RMK A01 T01770130  RH  077%=      5-min Rain = 0
KPFS 110555Z 20008KT 18/13 A2981 RMK A01 T01770130  RH  077%=      5-min Rain = 0

Page generated in 0.0093 seconds.